sensor_id;sensor_type;location;lat;lon;timestamp;P1;durP1;ratioP1;P2;durP2;ratioP2
11514;SDS011;5814;41.936;25.556;2023-04-23T00:01:13;20.17;;;18.77;;
11514;SDS011;5814;41.936;25.556;2023-04-23T00:03:40;20.03;;;18.63;;
11514;SDS011;5814;41.936;25.556;2023-04-23T00:06:07;19.53;;;18.30;;
11514;SDS011;5814;41.936;25.556;2023-04-23T00:08:37;20.47;;;19.07;;
11514;SDS011;5814;41.936;25.556;2023-04-23T00:11:06;20.73;;;19.27;;
11514;SDS011;5814;41.936;25.556;2023-04-23T00:13:34;21.43;;;19.77;;
11514;SDS011;5814;41.936;25.556;2023-04-23T00:16:01;21.20;;;19.77;;
11514;SDS011;5814;41.936;25.556;2023-04-23T00:18:29;20.73;;;19.33;;
11514;SDS011;5814;41.936;25.556;2023-04-23T00:20:56;20.30;;;18.60;;
11514;SDS011;5814;41.936;25.556;2023-04-23T00:23:23;19.80;;;18.27;;
11514;SDS011;5814;41.936;25.556;2023-04-23T00:25:50;20.60;;;19.00;;
11514;SDS011;5814;41.936;25.556;2023-04-23T00:28:17;20.57;;;18.87;;
11514;SDS011;5814;41.936;25.556;2023-04-23T00:30:45;20.03;;;18.73;;
11514;SDS011;5814;41.936;25.556;2023-04-23T00:33:12;19.23;;;17.83;;
11514;SDS011;5814;41.936;25.556;2023-04-23T00:35:39;19.37;;;17.97;;
11514;SDS011;5814;41.936;25.556;2023-04-23T00:38:06;19.43;;;17.83;;
11514;SDS011;5814;41.936;25.556;2023-04-23T00:40:33;18.50;;;17.10;;
11514;SDS011;5814;41.936;25.556;2023-04-23T00:43:00;18.80;;;17.37;;
11514;SDS011;5814;41.936;25.556;2023-04-23T00:45:28;18.43;;;16.93;;
11514;SDS011;5814;41.936;25.556;2023-04-23T00:47:55;18.90;;;17.50;;
11514;SDS011;5814;41.936;25.556;2023-04-23T00:50:22;18.27;;;16.97;;
11514;SDS011;5814;41.936;25.556;2023-04-23T00:52:50;18.03;;;16.43;;
11514;SDS011;5814;41.936;25.556;2023-04-23T00:55:16;17.60;;;16.30;;
11514;SDS011;5814;41.936;25.556;2023-04-23T00:57:44;16.73;;;15.47;;
11514;SDS011;5814;41.936;25.556;2023-04-23T01:00:11;16.93;;;15.73;;
11514;SDS011;5814;41.936;25.556;2023-04-23T01:02:39;16.87;;;15.57;;
11514;SDS011;5814;41.936;25.556;2023-04-23T01:05:06;16.17;;;14.97;;
11514;SDS011;5814;41.936;25.556;2023-04-23T01:07:34;16.03;;;14.63;;
11514;SDS011;5814;41.936;25.556;2023-04-23T01:10:02;15.60;;;14.50;;
11514;SDS011;5814;41.936;25.556;2023-04-23T01:12:28;15.80;;;14.23;;
11514;SDS011;5814;41.936;25.556;2023-04-23T01:14:55;14.80;;;13.70;;
11514;SDS011;5814;41.936;25.556;2023-04-23T01:17:22;15.17;;;13.73;;
11514;SDS011;5814;41.936;25.556;2023-04-23T01:19:49;15.30;;;14.03;;
11514;SDS011;5814;41.936;25.556;2023-04-23T01:22:17;15.10;;;13.70;;
11514;SDS011;5814;41.936;25.556;2023-04-23T01:24:44;13.73;;;12.37;;
11514;SDS011;5814;41.936;25.556;2023-04-23T01:27:11;13.90;;;12.53;;
11514;SDS011;5814;41.936;25.556;2023-04-23T01:29:38;14.30;;;12.07;;
11514;SDS011;5814;41.936;25.556;2023-04-23T01:32:06;12.63;;;11.47;;
11514;SDS011;5814;41.936;25.556;2023-04-23T01:34:32;12.83;;;11.70;;
11514;SDS011;5814;41.936;25.556;2023-04-23T01:37:00;13.47;;;12.07;;
11514;SDS011;5814;41.936;25.556;2023-04-23T01:39:27;13.87;;;12.83;;
11514;SDS011;5814;41.936;25.556;2023-04-23T01:41:54;12.50;;;11.43;;
11514;SDS011;5814;41.936;25.556;2023-04-23T01:44:21;13.33;;;11.47;;
11514;SDS011;5814;41.936;25.556;2023-04-23T01:46:48;13.97;;;12.33;;
11514;SDS011;5814;41.936;25.556;2023-04-23T01:49:15;12.80;;;11.70;;
11514;SDS011;5814;41.936;25.556;2023-04-23T01:51:43;12.93;;;11.87;;
11514;SDS011;5814;41.936;25.556;2023-04-23T01:54:10;13.27;;;11.87;;
11514;SDS011;5814;41.936;25.556;2023-04-23T01:56:37;13.60;;;12.30;;
11514;SDS011;5814;41.936;25.556;2023-04-23T01:59:04;12.57;;;11.50;;
11514;SDS011;5814;41.936;25.556;2023-04-23T02:04:07;13.13;;;11.93;;
11514;SDS011;5814;41.936;25.556;2023-04-23T02:06:34;12.37;;;11.27;;
11514;SDS011;5814;41.936;25.556;2023-04-23T02:09:02;12.23;;;11.33;;
11514;SDS011;5814;41.936;25.556;2023-04-23T02:11:29;12.20;;;11.20;;
11514;SDS011;5814;41.936;25.556;2023-04-23T02:13:56;12.70;;;11.57;;
11514;SDS011;5814;41.936;25.556;2023-04-23T02:16:23;11.83;;;10.77;;
11514;SDS011;5814;41.936;25.556;2023-04-23T02:18:50;12.60;;;11.50;;
11514;SDS011;5814;41.936;25.556;2023-04-23T02:21:17;13.17;;;11.83;;
11514;SDS011;5814;41.936;25.556;2023-04-23T02:23:45;12.07;;;11.17;;
11514;SDS011;5814;41.936;25.556;2023-04-23T02:26:12;12.73;;;11.57;;
11514;SDS011;5814;41.936;25.556;2023-04-23T02:28:39;13.50;;;12.33;;
11514;SDS011;5814;41.936;25.556;2023-04-23T02:31:06;12.63;;;11.37;;
11514;SDS011;5814;41.936;25.556;2023-04-23T02:33:33;15.77;;;11.70;;
11514;SDS011;5814;41.936;25.556;2023-04-23T02:36:00;11.93;;;10.93;;
11514;SDS011;5814;41.936;25.556;2023-04-23T02:38:28;12.00;;;10.90;;
11514;SDS011;5814;41.936;25.556;2023-04-23T02:40:55;11.93;;;10.80;;
11514;SDS011;5814;41.936;25.556;2023-04-23T02:43:22;12.33;;;11.10;;
11514;SDS011;5814;41.936;25.556;2023-04-23T02:45:49;11.50;;;10.60;;
11514;SDS011;5814;41.936;25.556;2023-04-23T02:48:17;11.90;;;10.80;;
11514;SDS011;5814;41.936;25.556;2023-04-23T02:50:44;12.40;;;11.30;;
11514;SDS011;5814;41.936;25.556;2023-04-23T02:53:11;12.20;;;11.10;;
11514;SDS011;5814;41.936;25.556;2023-04-23T02:55:38;13.07;;;11.80;;
11514;SDS011;5814;41.936;25.556;2023-04-23T02:58:05;12.00;;;11.10;;
11514;SDS011;5814;41.936;25.556;2023-04-23T03:00:32;12.53;;;11.57;;
11514;SDS011;5814;41.936;25.556;2023-04-23T03:03:00;12.63;;;11.63;;
11514;SDS011;5814;41.936;25.556;2023-04-23T03:05:27;12.70;;;11.40;;
11514;SDS011;5814;41.936;25.556;2023-04-23T03:07:54;12.80;;;11.63;;
11514;SDS011;5814;41.936;25.556;2023-04-23T03:10:21;13.27;;;11.77;;
11514;SDS011;5814;41.936;25.556;2023-04-23T03:12:48;11.87;;;10.97;;
11514;SDS011;5814;41.936;25.556;2023-04-23T03:15:16;12.90;;;11.80;;
11514;SDS011;5814;41.936;25.556;2023-04-23T03:17:43;12.43;;;11.43;;
11514;SDS011;5814;41.936;25.556;2023-04-23T03:20:10;13.00;;;11.80;;
11514;SDS011;5814;41.936;25.556;2023-04-23T03:22:37;13.00;;;11.90;;
11514;SDS011;5814;41.936;25.556;2023-04-23T03:25:05;13.97;;;12.30;;
11514;SDS011;5814;41.936;25.556;2023-04-23T03:27:32;14.17;;;12.17;;
11514;SDS011;5814;41.936;25.556;2023-04-23T03:29:59;14.80;;;12.00;;
11514;SDS011;5814;41.936;25.556;2023-04-23T03:32:26;13.20;;;11.90;;
11514;SDS011;5814;41.936;25.556;2023-04-23T03:34:53;18.27;;;13.07;;
11514;SDS011;5814;41.936;25.556;2023-04-23T03:37:21;16.50;;;12.20;;
11514;SDS011;5814;41.936;25.556;2023-04-23T03:39:48;13.50;;;12.10;;
11514;SDS011;5814;41.936;25.556;2023-04-23T03:42:15;13.57;;;12.37;;
11514;SDS011;5814;41.936;25.556;2023-04-23T03:44:42;13.93;;;12.53;;
11514;SDS011;5814;41.936;25.556;2023-04-23T03:47:09;13.53;;;12.37;;
11514;SDS011;5814;41.936;25.556;2023-04-23T03:49:37;13.90;;;12.67;;
11514;SDS011;5814;41.936;25.556;2023-04-23T03:52:05;13.63;;;12.50;;
11514;SDS011;5814;41.936;25.556;2023-04-23T03:54:32;14.67;;;11.70;;
11514;SDS011;5814;41.936;25.556;2023-04-23T03:56:59;13.63;;;12.37;;
11514;SDS011;5814;41.936;25.556;2023-04-23T03:59:26;14.47;;;13.07;;
11514;SDS011;5814;41.936;25.556;2023-04-23T04:01:53;14.27;;;12.87;;
11514;SDS011;5814;41.936;25.556;2023-04-23T04:04:21;14.50;;;13.30;;
11514;SDS011;5814;41.936;25.556;2023-04-23T04:06:48;14.50;;;13.27;;
11514;SDS011;5814;41.936;25.556;2023-04-23T04:09:15;15.17;;;13.60;;
11514;SDS011;5814;41.936;25.556;2023-04-23T04:11:42;14.70;;;13.37;;
11514;SDS011;5814;41.936;25.556;2023-04-23T04:14:09;13.87;;;12.37;;
11514;SDS011;5814;41.936;25.556;2023-04-23T04:16:36;14.03;;;12.73;;
11514;SDS011;5814;41.936;25.556;2023-04-23T04:19:04;13.93;;;12.70;;
11514;SDS011;5814;41.936;25.556;2023-04-23T04:21:31;15.33;;;13.60;;
11514;SDS011;5814;41.936;25.556;2023-04-23T04:23:58;13.40;;;12.30;;
11514;SDS011;5814;41.936;25.556;2023-04-23T04:26:26;15.83;;;13.67;;
11514;SDS011;5814;41.936;25.556;2023-04-23T04:28:53;18.67;;;14.40;;
11514;SDS011;5814;41.936;25.556;2023-04-23T04:31:20;15.23;;;13.43;;
11514;SDS011;5814;41.936;25.556;2023-04-23T04:33:47;17.17;;;15.50;;
11514;SDS011;5814;41.936;25.556;2023-04-23T04:36:14;15.67;;;14.23;;
11514;SDS011;5814;41.936;25.556;2023-04-23T04:38:41;16.90;;;13.77;;
11514;SDS011;5814;41.936;25.556;2023-04-23T04:41:09;15.30;;;13.77;;
11514;SDS011;5814;41.936;25.556;2023-04-23T04:43:36;14.57;;;13.00;;
11514;SDS011;5814;41.936;25.556;2023-04-23T04:46:03;15.80;;;12.70;;
11514;SDS011;5814;41.936;25.556;2023-04-23T04:48:30;14.40;;;13.03;;
11514;SDS011;5814;41.936;25.556;2023-04-23T04:50:57;15.27;;;12.23;;
11514;SDS011;5814;41.936;25.556;2023-04-23T04:53:24;15.77;;;11.70;;
11514;SDS011;5814;41.936;25.556;2023-04-23T04:55:52;13.57;;;12.20;;
11514;SDS011;5814;41.936;25.556;2023-04-23T04:58:19;12.00;;;10.20;;
11514;SDS011;5814;41.936;25.556;2023-04-23T05:00:46;12.97;;;11.73;;
11514;SDS011;5814;41.936;25.556;2023-04-23T05:03:14;12.27;;;11.07;;
11514;SDS011;5814;41.936;25.556;2023-04-23T05:05:41;12.73;;;10.40;;
11514;SDS011;5814;41.936;25.556;2023-04-23T05:08:08;11.80;;;10.60;;
11514;SDS011;5814;41.936;25.556;2023-04-23T05:10:36;12.07;;;9.53;;
11514;SDS011;5814;41.936;25.556;2023-04-23T05:13:03;13.23;;;9.13;;
11514;SDS011;5814;41.936;25.556;2023-04-23T05:15:30;10.27;;;9.20;;
11514;SDS011;5814;41.936;25.556;2023-04-23T05:17:57;10.53;;;8.50;;
11514;SDS011;5814;41.936;25.556;2023-04-23T05:20:24;9.63;;;8.73;;
11514;SDS011;5814;41.936;25.556;2023-04-23T05:22:51;13.93;;;8.53;;
11514;SDS011;5814;41.936;25.556;2023-04-23T05:25:19;14.00;;;9.37;;
11514;SDS011;5814;41.936;25.556;2023-04-23T05:27:46;10.03;;;8.57;;
11514;SDS011;5814;41.936;25.556;2023-04-23T05:30:13;10.57;;;9.10;;
11514;SDS011;5814;41.936;25.556;2023-04-23T05:32:40;9.70;;;8.70;;
11514;SDS011;5814;41.936;25.556;2023-04-23T05:35:07;11.27;;;8.57;;
11514;SDS011;5814;41.936;25.556;2023-04-23T05:37:35;9.93;;;8.47;;
11514;SDS011;5814;41.936;25.556;2023-04-23T05:40:03;9.23;;;7.83;;
11514;SDS011;5814;41.936;25.556;2023-04-23T05:42:31;9.50;;;8.47;;
11514;SDS011;5814;41.936;25.556;2023-04-23T05:44:58;10.03;;;8.40;;
11514;SDS011;5814;41.936;25.556;2023-04-23T05:47:25;11.37;;;10.30;;
11514;SDS011;5814;41.936;25.556;2023-04-23T05:49:52;10.27;;;9.40;;
11514;SDS011;5814;41.936;25.556;2023-04-23T05:52:19;11.07;;;10.03;;
11514;SDS011;5814;41.936;25.556;2023-04-23T05:54:46;10.60;;;9.60;;
11514;SDS011;5814;41.936;25.556;2023-04-23T05:57:14;10.53;;;9.53;;
11514;SDS011;5814;41.936;25.556;2023-04-23T05:59:41;10.17;;;9.23;;
11514;SDS011;5814;41.936;25.556;2023-04-23T06:02:09;12.30;;;11.17;;
11514;SDS011;5814;41.936;25.556;2023-04-23T06:04:36;13.77;;;11.87;;
11514;SDS011;5814;41.936;25.556;2023-04-23T06:07:03;12.90;;;11.83;;
11514;SDS011;5814;41.936;25.556;2023-04-23T06:09:30;12.50;;;11.33;;
11514;SDS011;5814;41.936;25.556;2023-04-23T06:11:57;14.27;;;12.10;;
11514;SDS011;5814;41.936;25.556;2023-04-23T06:14:24;11.07;;;9.70;;
11514;SDS011;5814;41.936;25.556;2023-04-23T06:16:51;9.00;;;8.10;;
11514;SDS011;5814;41.936;25.556;2023-04-23T06:19:19;8.60;;;7.77;;
11514;SDS011;5814;41.936;25.556;2023-04-23T06:21:46;9.20;;;8.23;;
11514;SDS011;5814;41.936;25.556;2023-04-23T06:24:13;9.23;;;8.43;;
11514;SDS011;5814;41.936;25.556;2023-04-23T06:26:40;9.93;;;8.20;;
11514;SDS011;5814;41.936;25.556;2023-04-23T06:29:07;9.97;;;7.73;;
11514;SDS011;5814;41.936;25.556;2023-04-23T06:31:34;10.33;;;8.30;;
11514;SDS011;5814;41.936;25.556;2023-04-23T06:34:01;11.30;;;7.60;;
11514;SDS011;5814;41.936;25.556;2023-04-23T06:36:29;13.77;;;8.57;;
11514;SDS011;5814;41.936;25.556;2023-04-23T06:38:56;9.17;;;7.30;;
11514;SDS011;5814;41.936;25.556;2023-04-23T06:41:23;8.30;;;7.50;;
11514;SDS011;5814;41.936;25.556;2023-04-23T06:43:50;9.00;;;7.20;;
11514;SDS011;5814;41.936;25.556;2023-04-23T06:46:17;9.83;;;7.90;;
11514;SDS011;5814;41.936;25.556;2023-04-23T06:48:44;7.63;;;6.73;;
11514;SDS011;5814;41.936;25.556;2023-04-23T06:51:12;10.97;;;7.00;;
11514;SDS011;5814;41.936;25.556;2023-04-23T06:53:39;8.73;;;7.07;;
11514;SDS011;5814;41.936;25.556;2023-04-23T06:56:06;8.63;;;6.57;;
11514;SDS011;5814;41.936;25.556;2023-04-23T06:58:33;7.70;;;6.60;;
11514;SDS011;5814;41.936;25.556;2023-04-23T07:01:00;7.33;;;6.70;;
11514;SDS011;5814;41.936;25.556;2023-04-23T07:03:30;11.63;;;6.40;;
11514;SDS011;5814;41.936;25.556;2023-04-23T07:05:57;11.57;;;7.20;;
11514;SDS011;5814;41.936;25.556;2023-04-23T07:08:24;11.60;;;7.47;;
11514;SDS011;5814;41.936;25.556;2023-04-23T07:10:51;7.83;;;7.17;;
11514;SDS011;5814;41.936;25.556;2023-04-23T07:13:18;9.87;;;7.53;;
11514;SDS011;5814;41.936;25.556;2023-04-23T07:15:45;7.83;;;7.13;;
11514;SDS011;5814;41.936;25.556;2023-04-23T07:18:12;11.50;;;7.50;;
11514;SDS011;5814;41.936;25.556;2023-04-23T07:20:40;8.70;;;7.20;;
11514;SDS011;5814;41.936;25.556;2023-04-23T07:23:07;7.73;;;7.00;;
11514;SDS011;5814;41.936;25.556;2023-04-23T07:25:34;7.53;;;6.93;;
11514;SDS011;5814;41.936;25.556;2023-04-23T07:28:01;14.20;;;7.43;;
11514;SDS011;5814;41.936;25.556;2023-04-23T07:30:29;8.50;;;6.80;;
11514;SDS011;5814;41.936;25.556;2023-04-23T07:32:55;7.93;;;6.47;;
11514;SDS011;5814;41.936;25.556;2023-04-23T07:35:23;7.25;;;6.35;;
11514;SDS011;5814;41.936;25.556;2023-04-23T07:37:50;6.65;;;6.05;;
11514;SDS011;5814;41.936;25.556;2023-04-23T07:40:17;6.93;;;6.20;;
11514;SDS011;5814;41.936;25.556;2023-04-23T07:42:44;7.93;;;6.47;;
11514;SDS011;5814;41.936;25.556;2023-04-23T07:45:11;9.93;;;7.18;;
11514;SDS011;5814;41.936;25.556;2023-04-23T07:47:38;11.80;;;6.90;;
11514;SDS011;5814;41.936;25.556;2023-04-23T07:50:06;8.77;;;6.17;;
11514;SDS011;5814;41.936;25.556;2023-04-23T07:52:34;11.12;;;6.00;;
11514;SDS011;5814;41.936;25.556;2023-04-23T07:55:01;10.13;;;5.80;;
11514;SDS011;5814;41.936;25.556;2023-04-23T07:57:28;13.13;;;6.07;;
11514;SDS011;5814;41.936;25.556;2023-04-23T07:59:55;6.97;;;5.90;;
11514;SDS011;5814;41.936;25.556;2023-04-23T08:02:23;8.57;;;5.95;;
11514;SDS011;5814;41.936;25.556;2023-04-23T08:04:50;7.97;;;5.93;;
11514;SDS011;5814;41.936;25.556;2023-04-23T08:07:17;8.15;;;6.22;;
11514;SDS011;5814;41.936;25.556;2023-04-23T08:09:44;6.95;;;5.80;;
11514;SDS011;5814;41.936;25.556;2023-04-23T08:12:11;6.37;;;5.80;;
11514;SDS011;5814;41.936;25.556;2023-04-23T08:14:38;5.93;;;5.25;;
11514;SDS011;5814;41.936;25.556;2023-04-23T08:17:06;6.87;;;5.60;;
11514;SDS011;5814;41.936;25.556;2023-04-23T08:19:33;6.62;;;5.90;;
11514;SDS011;5814;41.936;25.556;2023-04-23T08:22:00;6.50;;;5.90;;
11514;SDS011;5814;41.936;25.556;2023-04-23T08:24:27;6.40;;;5.80;;
11514;SDS011;5814;41.936;25.556;2023-04-23T08:26:54;7.90;;;6.40;;
11514;SDS011;5814;41.936;25.556;2023-04-23T08:29:21;7.25;;;6.40;;
11514;SDS011;5814;41.936;25.556;2023-04-23T08:31:48;8.73;;;6.87;;
11514;SDS011;5814;41.936;25.556;2023-04-23T08:34:16;9.57;;;6.55;;
11514;SDS011;5814;41.936;25.556;2023-04-23T08:36:43;6.90;;;6.25;;
11514;SDS011;5814;41.936;25.556;2023-04-23T08:39:10;9.07;;;6.10;;
11514;SDS011;5814;41.936;25.556;2023-04-23T08:41:38;9.85;;;6.40;;
11514;SDS011;5814;41.936;25.556;2023-04-23T08:46:39;6.72;;;5.93;;
11514;SDS011;5814;41.936;25.556;2023-04-23T08:49:05;7.20;;;6.60;;
11514;SDS011;5814;41.936;25.556;2023-04-23T08:51:32;7.55;;;6.22;;
11514;SDS011;5814;41.936;25.556;2023-04-23T08:53:59;7.62;;;6.43;;
11514;SDS011;5814;41.936;25.556;2023-04-23T08:56:27;8.60;;;7.65;;
11514;SDS011;5814;41.936;25.556;2023-04-23T08:58:54;10.82;;;8.00;;
11514;SDS011;5814;41.936;25.556;2023-04-23T09:01:21;7.22;;;6.70;;
11514;SDS011;5814;41.936;25.556;2023-04-23T09:03:48;8.68;;;6.75;;
11514;SDS011;5814;41.936;25.556;2023-04-23T09:06:15;10.68;;;7.95;;
11514;SDS011;5814;41.936;25.556;2023-04-23T09:08:42;9.32;;;7.95;;
11514;SDS011;5814;41.936;25.556;2023-04-23T09:11:09;8.50;;;7.65;;
11514;SDS011;5814;41.936;25.556;2023-04-23T09:13:37;8.68;;;7.87;;
11514;SDS011;5814;41.936;25.556;2023-04-23T09:16:04;10.15;;;7.53;;
11514;SDS011;5814;41.936;25.556;2023-04-23T09:18:31;7.57;;;6.93;;
11514;SDS011;5814;41.936;25.556;2023-04-23T09:20:58;13.27;;;6.62;;
11514;SDS011;5814;41.936;25.556;2023-04-23T09:23:25;7.22;;;6.65;;
11514;SDS011;5814;41.936;25.556;2023-04-23T09:25:53;6.93;;;6.25;;
11514;SDS011;5814;41.936;25.556;2023-04-23T09:28:20;6.57;;;6.00;;
11514;SDS011;5814;41.936;25.556;2023-04-23T09:30:47;7.10;;;6.28;;
11514;SDS011;5814;41.936;25.556;2023-04-23T09:33:15;6.85;;;6.15;;
11514;SDS011;5814;41.936;25.556;2023-04-23T09:35:41;6.68;;;6.10;;
11514;SDS011;5814;41.936;25.556;2023-04-23T09:38:08;6.15;;;5.60;;
11514;SDS011;5814;41.936;25.556;2023-04-23T09:40:36;6.43;;;5.82;;
11514;SDS011;5814;41.936;25.556;2023-04-23T09:43:03;6.82;;;5.95;;
11514;SDS011;5814;41.936;25.556;2023-04-23T09:45:30;10.38;;;5.95;;
11514;SDS011;5814;41.936;25.556;2023-04-23T09:47:57;7.50;;;6.80;;
11514;SDS011;5814;41.936;25.556;2023-04-23T09:50:31;7.62;;;6.20;;
11514;SDS011;5814;41.936;25.556;2023-04-23T09:53:00;6.35;;;5.70;;
11514;SDS011;5814;41.936;25.556;2023-04-23T09:55:30;8.05;;;5.65;;
11514;SDS011;5814;41.936;25.556;2023-04-23T09:57:57;5.93;;;5.50;;
11514;SDS011;5814;41.936;25.556;2023-04-23T10:00:24;6.37;;;5.75;;
11514;SDS011;5814;41.936;25.556;2023-04-23T10:02:52;8.50;;;5.60;;
11514;SDS011;5814;41.936;25.556;2023-04-23T10:05:19;6.25;;;5.85;;
11514;SDS011;5814;41.936;25.556;2023-04-23T10:07:46;8.40;;;5.70;;
11514;SDS011;5814;41.936;25.556;2023-04-23T10:10:14;6.75;;;5.90;;
11514;SDS011;5814;41.936;25.556;2023-04-23T10:12:41;6.72;;;6.00;;
11514;SDS011;5814;41.936;25.556;2023-04-23T10:15:09;6.32;;;5.72;;
11514;SDS011;5814;41.936;25.556;2023-04-23T10:17:36;8.43;;;6.35;;
11514;SDS011;5814;41.936;25.556;2023-04-23T10:20:03;7.25;;;5.60;;
11514;SDS011;5814;41.936;25.556;2023-04-23T10:22:32;6.82;;;6.10;;
11514;SDS011;5814;41.936;25.556;2023-04-23T10:24:59;10.60;;;6.37;;
11514;SDS011;5814;41.936;25.556;2023-04-23T10:27:26;7.15;;;5.80;;
11514;SDS011;5814;41.936;25.556;2023-04-23T10:29:52;6.72;;;6.05;;
11514;SDS011;5814;41.936;25.556;2023-04-23T10:32:20;7.18;;;6.12;;
11514;SDS011;5814;41.936;25.556;2023-04-23T10:34:46;7.22;;;5.37;;
11514;SDS011;5814;41.936;25.556;2023-04-23T10:37:14;6.07;;;5.40;;
11514;SDS011;5814;41.936;25.556;2023-04-23T10:39:42;6.43;;;5.55;;
11514;SDS011;5814;41.936;25.556;2023-04-23T10:42:08;5.95;;;5.55;;
11514;SDS011;5814;41.936;25.556;2023-04-23T10:44:36;6.55;;;5.50;;
11514;SDS011;5814;41.936;25.556;2023-04-23T10:47:02;6.68;;;5.97;;
11514;SDS011;5814;41.936;25.556;2023-04-23T10:49:30;7.15;;;6.15;;
11514;SDS011;5814;41.936;25.556;2023-04-23T10:51:57;8.68;;;6.25;;
11514;SDS011;5814;41.936;25.556;2023-04-23T10:54:27;9.27;;;6.12;;
11514;SDS011;5814;41.936;25.556;2023-04-23T10:56:57;6.60;;;5.93;;
11514;SDS011;5814;41.936;25.556;2023-04-23T10:59:24;8.25;;;6.30;;
11514;SDS011;5814;41.936;25.556;2023-04-23T11:01:52;7.00;;;6.45;;
11514;SDS011;5814;41.936;25.556;2023-04-23T11:04:20;6.43;;;5.80;;
11514;SDS011;5814;41.936;25.556;2023-04-23T11:06:50;8.23;;;6.32;;
11514;SDS011;5814;41.936;25.556;2023-04-23T11:09:27;6.22;;;5.50;;
11514;SDS011;5814;41.936;25.556;2023-04-23T11:11:57;6.40;;;5.75;;
11514;SDS011;5814;41.936;25.556;2023-04-23T11:14:57;6.07;;;5.60;;
11514;SDS011;5814;41.936;25.556;2023-04-23T11:17:11;7.05;;;6.10;;
11514;SDS011;5814;41.936;25.556;2023-04-23T11:19:38;7.00;;;6.32;;
11514;SDS011;5814;41.936;25.556;2023-04-23T11:22:06;6.53;;;5.90;;
11514;SDS011;5814;41.936;25.556;2023-04-23T11:24:40;6.75;;;6.15;;
11514;SDS011;5814;41.936;25.556;2023-04-23T11:27:08;8.43;;;5.95;;
11514;SDS011;5814;41.936;25.556;2023-04-23T11:29:34;6.15;;;5.62;;
11514;SDS011;5814;41.936;25.556;2023-04-23T11:32:01;7.15;;;6.03;;
11514;SDS011;5814;41.936;25.556;2023-04-23T11:34:28;6.68;;;5.75;;
11514;SDS011;5814;41.936;25.556;2023-04-23T11:36:56;10.18;;;5.95;;
11514;SDS011;5814;41.936;25.556;2023-04-23T11:39:23;10.45;;;5.97;;
11514;SDS011;5814;41.936;25.556;2023-04-23T11:41:50;5.43;;;5.03;;
11514;SDS011;5814;41.936;25.556;2023-04-23T11:44:19;6.22;;;5.15;;
11514;SDS011;5814;41.936;25.556;2023-04-23T11:46:46;5.95;;;5.45;;
11514;SDS011;5814;41.936;25.556;2023-04-23T11:49:12;6.25;;;5.62;;
11514;SDS011;5814;41.936;25.556;2023-04-23T11:51:40;9.68;;;5.68;;
11514;SDS011;5814;41.936;25.556;2023-04-23T11:54:06;5.57;;;5.15;;
11514;SDS011;5814;41.936;25.556;2023-04-23T11:56:34;5.60;;;5.10;;
11514;SDS011;5814;41.936;25.556;2023-04-23T11:59:01;7.57;;;5.53;;
11514;SDS011;5814;41.936;25.556;2023-04-23T12:04:08;5.85;;;5.40;;
11514;SDS011;5814;41.936;25.556;2023-04-23T12:06:36;6.20;;;5.53;;
11514;SDS011;5814;41.936;25.556;2023-04-23T12:09:03;5.65;;;5.25;;
11514;SDS011;5814;41.936;25.556;2023-04-23T12:11:30;6.37;;;5.75;;
11514;SDS011;5814;41.936;25.556;2023-04-23T12:13:57;6.43;;;6.00;;
11514;SDS011;5814;41.936;25.556;2023-04-23T12:18:59;6.55;;;5.82;;
11514;SDS011;5814;41.936;25.556;2023-04-23T12:21:26;5.95;;;5.28;;
11514;SDS011;5814;41.936;25.556;2023-04-23T12:23:55;6.10;;;5.62;;
11514;SDS011;5814;41.936;25.556;2023-04-23T12:26:22;5.97;;;5.30;;
11514;SDS011;5814;41.936;25.556;2023-04-23T12:28:53;5.82;;;5.22;;
11514;SDS011;5814;41.936;25.556;2023-04-23T12:31:19;5.90;;;5.40;;
11514;SDS011;5814;41.936;25.556;2023-04-23T12:33:46;5.70;;;5.30;;
11514;SDS011;5814;41.936;25.556;2023-04-23T12:36:14;6.10;;;5.50;;
11514;SDS011;5814;41.936;25.556;2023-04-23T12:38:42;5.90;;;5.40;;
11514;SDS011;5814;41.936;25.556;2023-04-23T12:41:09;5.75;;;5.45;;
11514;SDS011;5814;41.936;25.556;2023-04-23T12:43:36;6.00;;;5.70;;
11514;SDS011;5814;41.936;25.556;2023-04-23T12:46:03;7.22;;;6.62;;
11514;SDS011;5814;41.936;25.556;2023-04-23T12:48:30;5.80;;;5.30;;
11514;SDS011;5814;41.936;25.556;2023-04-23T12:50:58;5.93;;;5.53;;
11514;SDS011;5814;41.936;25.556;2023-04-23T12:53:25;6.60;;;6.10;;
11514;SDS011;5814;41.936;25.556;2023-04-23T12:55:52;8.75;;;5.60;;
11514;SDS011;5814;41.936;25.556;2023-04-23T12:58:19;6.20;;;5.70;;
11514;SDS011;5814;41.936;25.556;2023-04-23T13:00:46;6.30;;;5.75;;
11514;SDS011;5814;41.936;25.556;2023-04-23T13:03:13;6.80;;;5.90;;
11514;SDS011;5814;41.936;25.556;2023-04-23T13:05:40;7.43;;;6.20;;
11514;SDS011;5814;41.936;25.556;2023-04-23T13:08:08;6.65;;;6.10;;
11514;SDS011;5814;41.936;25.556;2023-04-23T13:10:35;6.45;;;5.80;;
11514;SDS011;5814;41.936;25.556;2023-04-23T13:13:02;6.05;;;5.60;;
11514;SDS011;5814;41.936;25.556;2023-04-23T13:15:29;6.78;;;6.18;;
11514;SDS011;5814;41.936;25.556;2023-04-23T13:17:56;6.32;;;5.70;;
11514;SDS011;5814;41.936;25.556;2023-04-23T13:20:23;9.05;;;6.10;;
11514;SDS011;5814;41.936;25.556;2023-04-23T13:22:51;7.25;;;5.80;;
11514;SDS011;5814;41.936;25.556;2023-04-23T13:25:18;7.47;;;5.80;;
11514;SDS011;5814;41.936;25.556;2023-04-23T13:27:45;5.95;;;5.47;;
11514;SDS011;5814;41.936;25.556;2023-04-23T13:30:12;6.40;;;5.80;;
11514;SDS011;5814;41.936;25.556;2023-04-23T13:32:39;6.30;;;5.68;;
11514;SDS011;5814;41.936;25.556;2023-04-23T13:35:07;6.28;;;5.78;;
11514;SDS011;5814;41.936;25.556;2023-04-23T13:37:34;6.10;;;5.68;;
11514;SDS011;5814;41.936;25.556;2023-04-23T13:40:09;6.00;;;5.60;;
11514;SDS011;5814;41.936;25.556;2023-04-23T13:42:37;6.25;;;5.72;;
11514;SDS011;5814;41.936;25.556;2023-04-23T13:45:04;6.20;;;5.65;;
11514;SDS011;5814;41.936;25.556;2023-04-23T13:47:32;6.32;;;5.95;;
11514;SDS011;5814;41.936;25.556;2023-04-23T13:49:59;6.53;;;5.93;;
11514;SDS011;5814;41.936;25.556;2023-04-23T13:52:26;8.55;;;5.65;;
11514;SDS011;5814;41.936;25.556;2023-04-23T13:54:53;5.87;;;5.50;;
11514;SDS011;5814;41.936;25.556;2023-04-23T13:57:20;6.07;;;5.47;;
11514;SDS011;5814;41.936;25.556;2023-04-23T13:59:47;6.20;;;5.45;;
11514;SDS011;5814;41.936;25.556;2023-04-23T14:02:14;6.80;;;5.45;;
11514;SDS011;5814;41.936;25.556;2023-04-23T14:04:42;5.95;;;5.45;;
11514;SDS011;5814;41.936;25.556;2023-04-23T14:07:09;6.00;;;5.50;;
11514;SDS011;5814;41.936;25.556;2023-04-23T14:09:36;6.20;;;5.70;;
11514;SDS011;5814;41.936;25.556;2023-04-23T14:12:03;7.28;;;6.55;;
11514;SDS011;5814;41.936;25.556;2023-04-23T14:14:31;6.57;;;5.75;;
11514;SDS011;5814;41.936;25.556;2023-04-23T14:16:58;6.62;;;6.05;;
11514;SDS011;5814;41.936;25.556;2023-04-23T14:19:25;6.87;;;6.28;;
11514;SDS011;5814;41.936;25.556;2023-04-23T14:21:52;5.90;;;5.50;;
11514;SDS011;5814;41.936;25.556;2023-04-23T14:24:21;7.80;;;6.60;;
11514;SDS011;5814;41.936;25.556;2023-04-23T14:26:48;6.40;;;5.80;;
11514;SDS011;5814;41.936;25.556;2023-04-23T14:29:18;6.75;;;6.05;;
11514;SDS011;5814;41.936;25.556;2023-04-23T14:31:44;6.80;;;6.10;;
11514;SDS011;5814;41.936;25.556;2023-04-23T14:34:11;6.28;;;5.80;;
11514;SDS011;5814;41.936;25.556;2023-04-23T14:36:38;6.00;;;5.60;;
11514;SDS011;5814;41.936;25.556;2023-04-23T14:39:05;6.05;;;5.57;;
11514;SDS011;5814;41.936;25.556;2023-04-23T14:41:33;6.15;;;5.75;;
11514;SDS011;5814;41.936;25.556;2023-04-23T14:44:00;6.53;;;5.95;;
11514;SDS011;5814;41.936;25.556;2023-04-23T14:46:27;6.50;;;5.95;;